createdAt,value
2022-12-23T00:01:43.299Z,15.50
2022-12-23T00:04:13.532Z,19.33
2022-12-23T00:06:43.779Z,16.88
2022-12-23T00:09:13.961Z,19.85
2022-12-23T00:12:14.579Z,15.57
2022-12-23T00:14:56.954Z,16.75
2022-12-23T00:17:27.169Z,19.52
2022-12-23T00:19:57.271Z,20.98
2022-12-23T00:22:47.964Z,21.08
2022-12-23T00:25:18.085Z,17.38
2022-12-23T00:28:01.675Z,17.83
2022-12-23T00:30:31.972Z,20.98
2022-12-23T00:33:02.117Z,23.98
2022-12-23T00:35:33.915Z,20.40
2022-12-23T00:38:04.025Z,19.13
2022-12-23T00:40:46.464Z,20.33
2022-12-23T00:43:19.148Z,21.05
2022-12-23T00:45:49.310Z,18.20
2022-12-23T00:48:32.436Z,14.40
2022-12-23T00:51:02.595Z,15.27
2022-12-23T00:53:33.179Z,14.30
2022-12-23T00:56:03.362Z,17.17
2022-12-23T00:58:36.125Z,16.58
2022-12-23T01:01:18.633Z,18.90
2022-12-23T01:04:01.051Z,15.13
2022-12-23T01:06:31.130Z,15.95
2022-12-23T01:09:01.251Z,16.92
2022-12-23T01:11:31.343Z,15.88
2022-12-23T01:14:04.271Z,14.55
2022-12-23T01:16:34.559Z,11.05
2022-12-23T01:19:04.664Z,12.77
2022-12-23T01:21:34.835Z,11.45
2022-12-23T01:24:04.969Z,13.10
2022-12-23T01:26:35.232Z,11.38
2022-12-23T01:29:08.173Z,10.75
2022-12-23T01:31:38.467Z,8.20
2022-12-23T01:34:08.952Z,10.27
2022-12-23T01:36:39.171Z,10.43
2022-12-23T01:39:09.335Z,12.57
2022-12-23T01:41:51.869Z,10.32
2022-12-23T01:44:56.649Z,10.02
2022-12-23T01:47:31.781Z,9.38
2022-12-23T01:50:08.533Z,11.15
2022-12-23T01:52:45.144Z,11.35
2022-12-23T01:55:16.736Z,13.85
2022-12-23T01:57:48.038Z,12.18
2022-12-23T02:00:33.817Z,10.63
2022-12-23T02:03:16.302Z,11.18
2022-12-23T02:05:48.725Z,12.10
2022-12-23T02:08:32.714Z,13.15
2022-12-23T02:11:31.677Z,12.70
2022-12-23T02:14:26.386Z,13.95
2022-12-23T02:17:08.225Z,11.45
2022-12-23T02:20:00.052Z,15.55
2022-12-23T02:22:53.457Z,14.10
2022-12-23T02:25:51.591Z,11.75
2022-12-23T02:28:45.945Z,12.65
2022-12-23T02:31:25.209Z,15.60
2022-12-23T02:34:02.313Z,13.70
2022-12-23T02:36:41.322Z,14.32
2022-12-23T02:39:14.505Z,15.68
2022-12-23T02:41:51.604Z,16.73
2022-12-23T02:44:28.761Z,14.88
2022-12-23T02:47:06.781Z,18.38
2022-12-23T02:49:39.579Z,13.70
2022-12-23T02:52:15.811Z,18.58
2022-12-23T02:55:00.581Z,17.80
2022-12-23T02:57:35.471Z,17.77
2022-12-23T03:00:07.065Z,19.58
2022-12-23T03:02:42.364Z,14.30
2022-12-23T03:05:27.561Z,12.98
2022-12-23T03:08:02.741Z,12.25
2022-12-23T03:10:41.524Z,16.17
2022-12-23T03:13:22.248Z,17.15
2022-12-23T03:16:00.418Z,15.80
2022-12-23T03:18:46.488Z,18.50
2022-12-23T03:21:23.031Z,15.60
2022-12-23T03:24:00.635Z,17.83
2022-12-23T03:26:33.842Z,18.20
2022-12-23T03:29:08.900Z,20.95
2022-12-23T03:31:40.995Z,16.90
2022-12-23T03:34:18.216Z,20.80
2022-12-23T03:36:53.379Z,20.75
2022-12-23T03:39:29.317Z,18.52
2022-12-23T03:42:03.681Z,17.15
2022-12-23T03:44:37.895Z,20.05
2022-12-23T03:47:12.728Z,20.70
2022-12-23T03:49:49.614Z,16.40
2022-12-23T03:52:24.336Z,18.75
2022-12-23T03:54:58.084Z,18.95
2022-12-23T03:57:34.121Z,22.35
2022-12-23T04:00:04.260Z,21.48
2022-12-23T04:02:41.763Z,18.25
2022-12-23T04:05:26.546Z,22.08
2022-12-23T04:08:01.065Z,15.13
2022-12-23T04:10:31.494Z,20.45
2022-12-23T04:13:01.633Z,23.38
2022-12-23T04:15:32.205Z,18.60
2022-12-23T04:18:02.337Z,17.50
2022-12-23T04:20:35.001Z,16.83
2022-12-23T04:23:05.138Z,19.77
2022-12-23T04:25:35.286Z,20.63
2022-12-23T04:28:05.391Z,19.80
2022-12-23T04:30:35.445Z,18.88
2022-12-23T04:33:05.737Z,22.60
2022-12-23T04:35:38.412Z,18.83
2022-12-23T04:38:08.490Z,18.02
2022-12-23T04:40:38.501Z,23.83
2022-12-23T04:43:08.636Z,23.65
2022-12-23T04:45:38.689Z,23.30
2022-12-23T04:48:10.195Z,26.38
2022-12-23T04:50:42.821Z,26.77
2022-12-23T04:53:13.501Z,26.17
2022-12-23T04:55:43.594Z,24.20
2022-12-23T04:58:15.076Z,25.02
2022-12-23T05:00:45.188Z,17.52
2022-12-23T05:03:15.435Z,20.75
2022-12-23T05:05:49.192Z,18.30
2022-12-23T05:08:19.272Z,20.05
2022-12-23T05:10:49.315Z,19.90
2022-12-23T05:13:19.467Z,16.98
2022-12-23T05:15:52.161Z,24.45
2022-12-23T05:18:22.720Z,16.27
2022-12-23T05:20:55.443Z,15.57
2022-12-23T05:23:25.669Z,18.73
2022-12-23T05:25:57.411Z,19.35
2022-12-23T05:28:27.723Z,19.17
2022-12-23T05:31:04.396Z,16.55
2022-12-23T05:33:35.075Z,19.38
2022-12-23T05:36:09.011Z,21.98
2022-12-23T05:38:39.234Z,13.32
2022-12-23T05:41:10.546Z,16.45
2022-12-23T05:43:40.667Z,14.05
2022-12-23T05:46:10.967Z,15.63
2022-12-23T05:48:41.137Z,15.48
2022-12-23T05:51:13.794Z,12.90
2022-12-23T05:53:43.948Z,11.07
2022-12-23T05:56:14.045Z,10.07
2022-12-23T05:58:44.269Z,8.70
2022-12-23T06:01:14.355Z,13.48
2022-12-23T06:03:44.859Z,10.02
2022-12-23T06:06:17.766Z,9.20
2022-12-23T06:08:52.079Z,9.50
2022-12-23T06:11:26.046Z,15.65
2022-12-23T06:13:56.156Z,11.75
2022-12-23T06:16:26.477Z,16.35
2022-12-23T06:18:58.339Z,13.65
2022-12-23T06:21:31.071Z,15.63
2022-12-23T06:24:01.445Z,14.65
2022-12-23T06:26:31.745Z,12.85
2022-12-23T06:29:01.799Z,9.75
2022-12-23T06:31:31.916Z,10.02
2022-12-23T06:34:02.258Z,6.60
2022-12-23T06:36:34.835Z,9.00
2022-12-23T06:39:05.056Z,11.00
2022-12-23T06:41:35.095Z,9.82
2022-12-23T06:44:05.294Z,10.05
2022-12-23T06:46:35.506Z,12.50
2022-12-23T06:49:12.639Z,10.30
2022-12-23T06:51:45.950Z,10.20
2022-12-23T06:54:16.234Z,9.65
2022-12-23T06:56:46.394Z,10.13
2022-12-23T06:59:16.627Z,10.45
2022-12-23T07:01:46.989Z,7.35
2022-12-23T07:04:17.446Z,11.98
2022-12-23T07:06:50.129Z,10.90
2022-12-23T07:09:20.501Z,13.68
2022-12-23T07:11:50.543Z,9.73
2022-12-23T07:14:20.642Z,9.75
2022-12-23T07:16:51.199Z,12.77
2022-12-23T07:19:21.376Z,12.52
2022-12-23T07:21:54.273Z,11.50
2022-12-23T07:24:24.414Z,12.25
2022-12-23T07:26:56.013Z,14.93
2022-12-23T07:29:26.209Z,12.95
2022-12-23T07:31:56.363Z,12.25
2022-12-23T07:34:26.530Z,9.90
2022-12-23T07:36:59.406Z,9.02
2022-12-23T07:39:29.656Z,10.77
2022-12-23T07:42:16.973Z,11.13
2022-12-23T07:44:50.176Z,12.77
2022-12-23T07:47:20.313Z,20.13
2022-12-23T07:49:50.462Z,10.07
2022-12-23T07:52:23.371Z,9.15
2022-12-23T07:54:56.860Z,7.95
2022-12-23T07:57:27.385Z,13.95
2022-12-23T07:59:58.451Z,9.52
2022-12-23T08:02:28.777Z,9.32
2022-12-23T08:04:59.386Z,10.45
2022-12-23T08:07:32.151Z,7.90
2022-12-23T08:10:02.289Z,7.43
2022-12-23T08:12:32.355Z,11.43
2022-12-23T08:15:02.491Z,12.38
2022-12-23T08:17:33.470Z,17.02
2022-12-23T08:20:03.621Z,10.15
2022-12-23T08:22:37.099Z,11.07
2022-12-23T08:25:08.165Z,8.35
2022-12-23T08:27:38.601Z,10.27
2022-12-23T08:30:10.405Z,7.65
2022-12-23T08:32:40.598Z,20.48
2022-12-23T08:35:11.657Z,10.70
2022-12-23T08:37:44.755Z,7.28
2022-12-23T08:40:15.130Z,9.43
2022-12-23T08:42:45.281Z,6.75
2022-12-23T08:45:16.236Z,9.15
2022-12-23T08:47:46.404Z,9.93
2022-12-23T08:50:20.168Z,8.75
2022-12-23T08:52:52.999Z,11.43
2022-12-23T08:55:23.216Z,10.13
2022-12-23T08:57:53.556Z,10.05
2022-12-23T09:00:24.227Z,8.20
2022-12-23T09:02:54.527Z,9.15
2022-12-23T09:05:24.685Z,9.02
2022-12-23T09:07:57.701Z,11.75
2022-12-23T09:10:27.965Z,9.55
2022-12-23T09:12:58.306Z,10.75
2022-12-23T09:15:28.591Z,5.95
2022-12-23T09:18:00.181Z,8.73
2022-12-23T09:20:30.349Z,10.98
2022-12-23T09:23:04.019Z,11.52
2022-12-23T09:25:34.670Z,9.90
2022-12-23T09:28:04.786Z,11.65
2022-12-23T09:30:35.063Z,13.02
2022-12-23T09:33:05.273Z,14.38
2022-12-23T09:35:36.004Z,12.88
2022-12-23T09:38:09.687Z,14.48
2022-12-23T09:40:42.829Z,14.82
2022-12-23T09:43:25.111Z,13.95
2022-12-23T09:46:06.988Z,14.48
2022-12-23T09:48:42.795Z,17.48
2022-12-23T09:51:14.989Z,14.65
2022-12-23T09:53:55.622Z,18.80
2022-12-23T09:56:33.775Z,11.73
2022-12-23T09:59:11.317Z,12.85
2022-12-23T10:01:48.008Z,15.10
2022-12-23T10:04:37.885Z,7.05
2022-12-23T10:07:22.207Z,17.95
2022-12-23T10:12:40.028Z,10.90
2022-12-23T10:15:22.976Z,17.17
2022-12-23T10:17:57.567Z,13.10
2022-12-23T10:20:37.368Z,14.73
2022-12-23T10:23:11.829Z,14.68
2022-12-23T10:25:53.021Z,24.42
2022-12-23T10:28:23.201Z,16.25
2022-12-23T10:34:07.037Z,18.95
2022-12-23T10:36:43.945Z,16.85
2022-12-23T10:39:23.783Z,16.23
2022-12-23T10:42:05.561Z,21.50
2022-12-23T10:45:02.362Z,20.55
2022-12-23T10:47:44.923Z,23.75
2022-12-23T10:50:31.443Z,20.83
2022-12-23T10:53:06.471Z,24.80
2022-12-23T10:55:39.362Z,21.33
2022-12-23T10:58:18.482Z,22.70
2022-12-23T11:01:04.774Z,22.77
2022-12-23T11:03:44.119Z,17.92
2022-12-23T11:06:15.382Z,19.27
2022-12-23T11:08:46.187Z,18.23
2022-12-23T11:11:16.520Z,25.80
2022-12-23T11:13:51.195Z,18.02
2022-12-23T11:16:25.967Z,19.33
2022-12-23T11:18:58.820Z,16.23
2022-12-23T11:21:29.866Z,21.08
2022-12-23T11:24:12.609Z,16.50
2022-12-23T11:26:42.960Z,16.35
2022-12-23T11:29:35.592Z,12.25
2022-12-23T11:32:17.051Z,18.75
2022-12-23T11:34:50.117Z,7.07
2022-12-23T11:37:33.112Z,12.98
2022-12-23T11:40:03.486Z,12.73
2022-12-23T11:42:36.926Z,22.58
2022-12-23T11:45:11.441Z,13.43
2022-12-23T11:47:44.106Z,13.13
2022-12-23T11:50:34.342Z,14.50
2022-12-23T11:53:16.770Z,12.98
2022-12-23T11:55:52.246Z,18.58
2022-12-23T11:58:25.991Z,19.92
2022-12-23T12:01:01.134Z,17.42
2022-12-23T12:03:35.508Z,14.02
2022-12-23T12:06:08.200Z,10.93
2022-12-23T12:08:40.790Z,11.50
2022-12-23T12:11:17.789Z,10.43
2022-12-23T12:13:50.983Z,15.30
2022-12-23T12:16:55.159Z,14.18
2022-12-23T12:19:31.353Z,8.50
2022-12-23T12:22:06.410Z,9.45
2022-12-23T12:24:42.931Z,9.35
2022-12-23T12:27:14.662Z,11.98
2022-12-23T12:29:50.375Z,7.32
2022-12-23T12:32:30.081Z,10.90
2022-12-23T12:35:04.410Z,10.43
2022-12-23T12:37:41.522Z,9.18
2022-12-23T12:40:21.164Z,9.57
2022-12-23T12:42:58.399Z,13.00
2022-12-23T12:45:33.725Z,9.02
2022-12-23T12:48:27.097Z,10.05
2022-12-23T12:51:04.251Z,7.07
2022-12-23T12:53:35.538Z,7.32
2022-12-23T12:56:13.597Z,7.15
2022-12-23T12:58:46.624Z,5.88
2022-12-23T13:01:34.610Z,7.80
2022-12-23T13:04:38.449Z,6.43
2022-12-23T13:07:15.019Z,9.20
2022-12-23T13:09:56.406Z,10.40
2022-12-23T13:12:38.362Z,11.38
2022-12-23T13:15:19.179Z,11.88
2022-12-23T13:18:03.687Z,9.77
2022-12-23T13:20:43.225Z,13.13
2022-12-23T13:23:42.291Z,13.13
2022-12-23T13:26:17.272Z,13.43
2022-12-23T13:28:57.481Z,13.18
2022-12-23T13:31:40.824Z,18.80
2022-12-23T13:34:24.096Z,15.55
2022-12-23T13:37:07.885Z,11.90
2022-12-23T13:39:49.067Z,11.27
2022-12-23T13:42:28.147Z,7.95
2022-12-23T13:44:59.576Z,8.38
2022-12-23T13:47:40.158Z,10.43
2022-12-23T13:50:18.456Z,10.70
2022-12-23T13:53:03.857Z,11.93
2022-12-23T13:56:04.211Z,9.73
2022-12-23T13:58:35.688Z,11.38
2022-12-23T14:01:33.435Z,10.95
2022-12-23T14:04:34.575Z,14.52
2022-12-23T14:07:07.496Z,14.20
2022-12-23T14:09:42.010Z,9.48
2022-12-23T14:12:16.044Z,9.23
2022-12-23T14:14:59.567Z,12.30
2022-12-23T14:17:38.207Z,10.82
2022-12-23T14:20:24.322Z,13.20
2022-12-23T14:23:07.308Z,12.32
2022-12-23T14:26:02.273Z,11.00
2022-12-23T14:28:54.494Z,9.57
2022-12-23T14:31:34.166Z,13.77
2022-12-23T14:34:10.480Z,11.27
2022-12-23T14:36:40.675Z,11.27
2022-12-23T14:39:33.272Z,14.57
2022-12-23T14:42:09.099Z,10.70
2022-12-23T14:44:52.195Z,11.88
2022-12-23T14:47:40.823Z,11.38
2022-12-23T14:50:42.801Z,9.63
2022-12-23T14:53:27.169Z,9.75
2022-12-23T14:56:24.486Z,14.52
2022-12-23T15:01:42.745Z,13.63
2022-12-23T15:04:21.083Z,13.38
2022-12-23T15:06:55.066Z,14.25
2022-12-23T15:09:30.158Z,12.20
2022-12-23T15:12:03.370Z,14.02
2022-12-23T15:14:41.383Z,14.90
2022-12-23T15:17:19.393Z,15.82
2022-12-23T15:19:50.230Z,9.90
2022-12-23T15:22:25.580Z,10.38
2022-12-23T15:25:00.525Z,18.77
2022-12-23T15:27:32.969Z,15.43
2022-12-23T15:30:05.838Z,13.10
2022-12-23T15:32:36.061Z,18.70
2022-12-23T15:35:08.585Z,18.52
2022-12-23T15:37:38.787Z,19.42
2022-12-23T15:40:25.163Z,18.77
2022-12-23T15:42:55.485Z,20.52
2022-12-23T15:45:41.287Z,22.38
2022-12-23T15:48:28.706Z,18.23
2022-12-23T15:51:01.759Z,23.15
2022-12-23T15:53:48.372Z,23.30
2022-12-23T15:56:26.079Z,24.08
2022-12-23T15:58:57.419Z,21.13
2022-12-23T16:01:30.687Z,22.52
2022-12-23T16:04:02.984Z,20.20
2022-12-23T16:06:35.974Z,19.45
2022-12-23T16:09:09.672Z,19.75
2022-12-23T16:11:44.175Z,25.27
2022-12-23T16:14:27.907Z,16.35
2022-12-23T16:17:02.869Z,24.13
2022-12-23T16:19:44.914Z,16.05
2022-12-23T16:22:28.034Z,20.83
2022-12-23T16:25:06.383Z,20.25
2022-12-23T16:27:39.977Z,22.25
2022-12-23T16:30:19.043Z,18.02
2022-12-23T16:32:58.267Z,17.38
2022-12-23T16:35:38.196Z,15.93
2022-12-23T16:38:19.040Z,26.45
2022-12-23T16:40:50.822Z,21.60
2022-12-23T16:43:22.338Z,19.75
2022-12-23T16:45:55.921Z,19.90
2022-12-23T16:48:33.931Z,17.73
2022-12-23T16:51:06.719Z,21.63
2022-12-23T16:53:37.020Z,23.60
2022-12-23T16:56:14.703Z,19.30
2022-12-23T17:01:17.408Z,20.38
2022-12-23T17:03:50.270Z,17.17
2022-12-23T17:06:20.760Z,19.52
2022-12-23T17:08:53.403Z,25.90
2022-12-23T17:11:27.002Z,15.23
2022-12-23T17:14:03.507Z,21.25
2022-12-23T17:16:36.170Z,23.17
2022-12-23T17:19:09.080Z,25.17
2022-12-23T17:21:40.305Z,23.05
2022-12-23T17:24:14.804Z,21.23
2022-12-23T17:26:45.144Z,26.13
2022-12-23T17:29:18.924Z,28.35
2022-12-23T17:31:50.404Z,25.50
2022-12-23T17:34:25.165Z,23.02
2022-12-23T17:36:55.698Z,19.65
2022-12-23T17:39:25.924Z,18.30
2022-12-23T17:41:56.364Z,21.70
2022-12-23T17:44:26.631Z,17.90
2022-12-23T17:46:56.900Z,20.05
2022-12-23T17:49:29.706Z,23.98
2022-12-23T17:51:59.955Z,18.30
2022-12-23T17:54:30.309Z,20.67
2022-12-23T17:57:00.986Z,17.85
2022-12-23T17:59:31.138Z,18.70
2022-12-23T18:02:01.403Z,24.02
2022-12-23T18:04:34.603Z,17.15
2022-12-23T18:07:04.879Z,15.18
2022-12-23T18:09:35.161Z,20.17
2022-12-23T18:12:05.403Z,20.67
2022-12-23T18:14:35.602Z,17.40
2022-12-23T18:17:05.796Z,24.02
2022-12-23T18:19:38.517Z,17.88
2022-12-23T18:22:08.750Z,17.90
2022-12-23T18:24:38.972Z,17.23
2022-12-23T18:27:16.360Z,19.83
2022-12-23T18:29:47.175Z,20.40
2022-12-23T18:32:25.222Z,17.83
2022-12-23T18:34:58.625Z,24.00
2022-12-23T18:37:28.879Z,23.48
2022-12-23T18:39:59.005Z,14.70
2022-12-23T18:42:29.223Z,21.60
2022-12-23T18:44:59.405Z,23.83
2022-12-23T18:47:31.765Z,15.40
2022-12-23T18:50:04.491Z,14.90
2022-12-23T18:52:34.775Z,21.85
2022-12-23T18:55:04.924Z,23.52
2022-12-23T18:57:35.161Z,21.45
2022-12-23T19:00:05.786Z,22.88
2022-12-23T19:02:36.381Z,16.85
2022-12-23T19:05:10.245Z,21.25
2022-12-23T19:07:40.406Z,24.67
2022-12-23T19:10:12.187Z,24.00
2022-12-23T19:12:42.374Z,19.58
2022-12-23T19:15:13.217Z,25.13
2022-12-23T19:17:43.568Z,20.98
2022-12-23T19:20:19.236Z,17.55
2022-12-23T19:22:50.148Z,16.85
2022-12-23T19:25:21.907Z,21.98
2022-12-23T19:27:52.294Z,17.23
2022-12-23T19:30:22.636Z,17.92
2022-12-23T19:32:54.347Z,19.85
2022-12-23T19:35:27.152Z,24.33
2022-12-23T19:37:57.875Z,16.92
2022-12-23T19:40:27.967Z,15.05
2022-12-23T19:42:58.119Z,13.68
2022-12-23T19:45:28.201Z,24.30
2022-12-23T19:47:58.365Z,18.55
2022-12-23T19:50:31.247Z,19.85
2022-12-23T19:53:01.529Z,17.20
2022-12-23T19:55:31.680Z,20.10
2022-12-23T19:58:01.842Z,18.60
2022-12-23T20:00:31.967Z,17.05
2022-12-23T20:03:02.247Z,24.35
2022-12-23T20:05:34.965Z,23.48
2022-12-23T20:08:05.096Z,22.30
2022-12-23T20:10:35.276Z,19.65
2022-12-23T20:13:05.443Z,21.83
2022-12-23T20:15:35.606Z,19.15
2022-12-23T20:18:05.753Z,19.77
2022-12-23T20:20:41.020Z,12.48
2022-12-23T20:23:11.291Z,12.15
2022-12-23T20:25:41.422Z,17.95
2022-12-23T20:28:11.963Z,22.00
2022-12-23T20:30:42.716Z,25.73
2022-12-23T20:33:13.260Z,17.75
2022-12-23T20:35:46.135Z,11.05
2022-12-23T20:38:16.364Z,15.68
2022-12-23T20:40:46.656Z,13.55
2022-12-23T20:43:16.980Z,23.65
2022-12-23T20:45:49.134Z,21.38
2022-12-23T20:48:21.259Z,21.20
2022-12-23T20:50:54.076Z,24.48
2022-12-23T20:53:24.496Z,20.15
2022-12-23T20:55:54.631Z,19.02
2022-12-23T20:58:37.131Z,23.95
2022-12-23T21:01:14.177Z,16.20
2022-12-23T21:03:44.822Z,16.80
2022-12-23T21:06:17.778Z,19.95
2022-12-23T21:08:47.999Z,26.08
2022-12-23T21:11:18.663Z,16.23
2022-12-23T21:13:51.086Z,20.52
2022-12-23T21:16:21.626Z,18.83
2022-12-23T21:18:53.516Z,22.90
2022-12-23T21:21:27.835Z,27.67
2022-12-23T21:24:19.702Z,19.15
2022-12-23T21:26:56.398Z,16.98
2022-12-23T21:29:27.375Z,21.02
2022-12-23T21:31:58.422Z,19.17
2022-12-23T21:37:01.073Z,25.00
2022-12-23T21:39:31.423Z,20.23
2022-12-23T21:42:01.525Z,13.40
2022-12-23T21:44:31.702Z,16.38
2022-12-23T21:47:01.808Z,19.75
2022-12-23T21:49:31.983Z,23.83
2022-12-23T21:52:04.752Z,21.52
2022-12-23T21:54:34.920Z,20.23
2022-12-23T21:57:05.013Z,17.25
2022-12-23T21:59:35.668Z,25.95
2022-12-23T22:02:06.009Z,18.52
2022-12-23T22:04:36.348Z,23.23
2022-12-23T22:07:09.047Z,29.13
2022-12-23T22:09:39.424Z,22.40
2022-12-23T22:12:09.575Z,20.55
2022-12-23T22:14:39.827Z,14.65
2022-12-23T22:17:09.909Z,15.80
2022-12-23T22:19:39.993Z,20.05
2022-12-23T22:22:14.507Z,17.33
2022-12-23T22:24:44.632Z,14.70
2022-12-23T22:27:14.686Z,24.67
2022-12-23T22:29:45.084Z,26.85
2022-12-23T22:32:15.355Z,23.40
2022-12-23T22:34:45.578Z,19.08
2022-12-23T22:37:18.502Z,22.13
2022-12-23T22:39:48.709Z,19.65
2022-12-23T22:42:19.082Z,17.52
2022-12-23T22:44:49.274Z,16.45
2022-12-23T22:47:19.652Z,18.08
2022-12-23T22:49:49.851Z,20.83
2022-12-23T22:52:22.672Z,22.73
2022-12-23T22:54:52.933Z,21.80
2022-12-23T22:57:23.111Z,23.45
2022-12-23T22:59:53.410Z,25.67
2022-12-23T23:02:23.632Z,27.33
2022-12-23T23:04:54.281Z,27.65
2022-12-23T23:07:27.002Z,23.17
2022-12-23T23:09:57.277Z,22.63
2022-12-23T23:12:27.436Z,25.02
2022-12-23T23:14:57.693Z,29.35
2022-12-23T23:17:30.043Z,23.83
2022-12-23T23:20:00.231Z,22.88
2022-12-23T23:22:33.045Z,23.00
2022-12-23T23:25:03.230Z,17.48
2022-12-23T23:27:33.286Z,28.88
2022-12-23T23:30:03.566Z,26.60
2022-12-23T23:32:33.848Z,26.85
2022-12-23T23:35:10.483Z,23.20
2022-12-23T23:37:43.644Z,22.25
2022-12-23T23:40:14.541Z,23.88
2022-12-23T23:42:44.862Z,19.08
2022-12-23T23:45:15.139Z,21.60
2022-12-23T23:47:48.635Z,24.73
2022-12-23T23:50:18.907Z,19.20
2022-12-23T23:52:51.680Z,18.75
2022-12-23T23:55:21.886Z,20.80
2022-12-23T23:57:52.109Z,21.02
